Winesburg, Ohio
Current Conditions -  °F | °C
As of 1:53 PM on Tuesday 27 Jan 2015 (Local Time) from KPHD Reporting Station
Overcast Overcast  
Wind Chill: 12°   Ceiling: 2700
Heat Index: 23°   Visibility: 10mi
Dew Point: 13°   Wind: 10mph
Humidity: 65%   Direction: 300°WNW
Pressure: 30.01"   Gusts: NA
Location:  40.62°N, 81.7°W
Report Text: KPHD 271853Z AUTO 30009KT 10SM BKN027 OVC040 M05/M11 A3001 RMK AO2 SLP176 T10501106
Loading
Personal Weather Stations






























Interactive Weather Map New forecast layout! Learn more

10-Day Weather Forecast

Advertisements
Track Severe Weather on mobile